sensor_id;sensor_type;location;lat;lon;timestamp;pressure;altitude;pressure_sealevel;temperature;humidity
62632;BME280;48703;51.248;-0.546;2022-09-09T00:00:16;99631;;;15.24;100.00
62632;BME280;48703;51.248;-0.546;2022-09-09T00:03:18;99629;;;15.21;100.00
62632;BME280;48703;51.248;-0.546;2022-09-09T00:06:21;99629;;;15.20;100.00
62632;BME280;48703;51.248;-0.546;2022-09-09T00:09:22;99629;;;15.18;100.00
62632;BME280;48703;51.248;-0.546;2022-09-09T00:12:25;99628;;;15.18;100.00
62632;BME280;48703;51.248;-0.546;2022-09-09T00:15:25;99628;;;15.17;100.00
62632;BME280;48703;51.248;-0.546;2022-09-09T00:18:27;99630;;;15.16;100.00
62632;BME280;48703;51.248;-0.546;2022-09-09T00:21:30;99630;;;15.15;100.00
62632;BME280;48703;51.248;-0.546;2022-09-09T00:24:32;99624;;;15.15;100.00
62632;BME280;48703;51.248;-0.546;2022-09-09T00:27:34;99620;;;15.15;100.00
62632;BME280;48703;51.248;-0.546;2022-09-09T00:30:34;99620;;;15.15;100.00
62632;BME280;48703;51.248;-0.546;2022-09-09T00:33:36;99623;;;15.13;100.00
62632;BME280;48703;51.248;-0.546;2022-09-09T00:36:38;99624;;;15.13;100.00
62632;BME280;48703;51.248;-0.546;2022-09-09T00:39:41;99628;;;15.11;100.00
62632;BME280;48703;51.248;-0.546;2022-09-09T00:42:42;99630;;;15.10;100.00
62632;BME280;48703;51.248;-0.546;2022-09-09T00:45:51;99630;;;15.10;100.00
62632;BME280;48703;51.248;-0.546;2022-09-09T00:48:49;99632;;;15.10;100.00
62632;BME280;48703;51.248;-0.546;2022-09-09T00:51:49;99632;;;15.10;100.00
62632;BME280;48703;51.248;-0.546;2022-09-09T00:54:51;99629;;;15.09;100.00
62632;BME280;48703;51.248;-0.546;2022-09-09T00:57:51;99627;;;15.09;100.00
62632;BME280;48703;51.248;-0.546;2022-09-09T01:00:55;99627;;;15.08;100.00
62632;BME280;48703;51.248;-0.546;2022-09-09T01:03:55;99626;;;15.07;100.00
62632;BME280;48703;51.248;-0.546;2022-09-09T01:06:59;99621;;;15.07;100.00
62632;BME280;48703;51.248;-0.546;2022-09-09T01:09:59;99618;;;15.07;100.00
62632;BME280;48703;51.248;-0.546;2022-09-09T01:13:00;99614;;;15.05;100.00
62632;BME280;48703;51.248;-0.546;2022-09-09T01:16:03;99612;;;15.05;100.00
62632;BME280;48703;51.248;-0.546;2022-09-09T01:19:04;99609;;;15.04;100.00
62632;BME280;48703;51.248;-0.546;2022-09-09T01:22:08;99612;;;15.03;100.00
62632;BME280;48703;51.248;-0.546;2022-09-09T01:25:13;99612;;;15.03;100.00
62632;BME280;48703;51.248;-0.546;2022-09-09T01:28:10;99615;;;15.02;100.00
62632;BME280;48703;51.248;-0.546;2022-09-09T01:31:14;99616;;;14.99;100.00
62632;BME280;48703;51.248;-0.546;2022-09-09T01:34:14;99619;;;14.99;100.00
62632;BME280;48703;51.248;-0.546;2022-09-09T01:37:15;99623;;;14.97;100.00
62632;BME280;48703;51.248;-0.546;2022-09-09T01:40:17;99625;;;14.96;100.00
62632;BME280;48703;51.248;-0.546;2022-09-09T01:43:19;99626;;;14.95;100.00
62632;BME280;48703;51.248;-0.546;2022-09-09T01:46:21;99630;;;14.93;100.00
62632;BME280;48703;51.248;-0.546;2022-09-09T01:49:23;99627;;;14.94;100.00
62632;BME280;48703;51.248;-0.546;2022-09-09T01:52:25;99625;;;14.93;100.00
62632;BME280;48703;51.248;-0.546;2022-09-09T01:55:28;99626;;;14.92;100.00
62632;BME280;48703;51.248;-0.546;2022-09-09T01:58:32;99626;;;14.91;100.00
62632;BME280;48703;51.248;-0.546;2022-09-09T02:01:34;99629;;;14.91;100.00
62632;BME280;48703;51.248;-0.546;2022-09-09T02:04:36;99630;;;14.92;100.00
62632;BME280;48703;51.248;-0.546;2022-09-09T02:07:37;99632;;;14.92;100.00
62632;BME280;48703;51.248;-0.546;2022-09-09T02:10:37;99632;;;14.93;100.00
62632;BME280;48703;51.248;-0.546;2022-09-09T02:13:38;99631;;;14.93;100.00
62632;BME280;48703;51.248;-0.546;2022-09-09T02:16:40;99633;;;14.93;100.00
62632;BME280;48703;51.248;-0.546;2022-09-09T02:19:42;99636;;;14.93;100.00
62632;BME280;48703;51.248;-0.546;2022-09-09T02:22:43;99636;;;14.93;100.00
62632;BME280;48703;51.248;-0.546;2022-09-09T02:25:45;99637;;;14.93;100.00
62632;BME280;48703;51.248;-0.546;2022-09-09T02:28:47;99639;;;14.93;100.00
62632;BME280;48703;51.248;-0.546;2022-09-09T02:31:49;99639;;;14.92;100.00
62632;BME280;48703;51.248;-0.546;2022-09-09T02:34:52;99638;;;14.93;100.00
62632;BME280;48703;51.248;-0.546;2022-09-09T02:37:53;99637;;;14.91;100.00
62632;BME280;48703;51.248;-0.546;2022-09-09T02:40:55;99632;;;14.91;100.00
62632;BME280;48703;51.248;-0.546;2022-09-09T02:43:56;99633;;;14.90;100.00
62632;BME280;48703;51.248;-0.546;2022-09-09T02:47:04;99637;;;14.90;100.00
62632;BME280;48703;51.248;-0.546;2022-09-09T02:50:03;99640;;;14.89;100.00
62632;BME280;48703;51.248;-0.546;2022-09-09T02:53:05;99639;;;14.89;100.00
62632;BME280;48703;51.248;-0.546;2022-09-09T02:56:04;99640;;;14.89;100.00
62632;BME280;48703;51.248;-0.546;2022-09-09T02:59:06;99642;;;14.87;100.00
62632;BME280;48703;51.248;-0.546;2022-09-09T03:02:08;99639;;;14.86;100.00
62632;BME280;48703;51.248;-0.546;2022-09-09T03:05:10;99643;;;14.85;100.00
62632;BME280;48703;51.248;-0.546;2022-09-09T03:08:12;99650;;;14.86;100.00
62632;BME280;48703;51.248;-0.546;2022-09-09T03:11:13;99653;;;14.85;100.00
62632;BME280;48703;51.248;-0.546;2022-09-09T03:14:15;99657;;;14.86;100.00
62632;BME280;48703;51.248;-0.546;2022-09-09T03:17:17;99659;;;14.86;100.00
62632;BME280;48703;51.248;-0.546;2022-09-09T03:20:19;99661;;;14.84;100.00
62632;BME280;48703;51.248;-0.546;2022-09-09T03:23:21;99662;;;14.85;100.00
62632;BME280;48703;51.248;-0.546;2022-09-09T03:26:23;99662;;;14.84;100.00
62632;BME280;48703;51.248;-0.546;2022-09-09T03:29:25;99668;;;14.85;100.00
62632;BME280;48703;51.248;-0.546;2022-09-09T03:32:26;99672;;;14.85;100.00
62632;BME280;48703;51.248;-0.546;2022-09-09T03:35:28;99677;;;14.85;100.00
62632;BME280;48703;51.248;-0.546;2022-09-09T03:38:30;99680;;;14.84;100.00
62632;BME280;48703;51.248;-0.546;2022-09-09T03:41:32;99684;;;14.85;100.00
62632;BME280;48703;51.248;-0.546;2022-09-09T03:44:34;99688;;;14.85;100.00
62632;BME280;48703;51.248;-0.546;2022-09-09T03:47:36;99690;;;14.85;100.00
62632;BME280;48703;51.248;-0.546;2022-09-09T03:50:38;99693;;;14.85;100.00
62632;BME280;48703;51.248;-0.546;2022-09-09T03:53:39;99697;;;14.86;100.00
62632;BME280;48703;51.248;-0.546;2022-09-09T03:56:41;99700;;;14.87;100.00
62632;BME280;48703;51.248;-0.546;2022-09-09T03:59:43;99703;;;14.87;100.00
62632;BME280;48703;51.248;-0.546;2022-09-09T04:02:45;99704;;;14.86;100.00
62632;BME280;48703;51.248;-0.546;2022-09-09T04:05:48;99706;;;14.86;100.00
62632;BME280;48703;51.248;-0.546;2022-09-09T04:08:49;99708;;;14.84;100.00
62632;BME280;48703;51.248;-0.546;2022-09-09T04:11:51;99712;;;14.84;100.00
62632;BME280;48703;51.248;-0.546;2022-09-09T04:14:53;99713;;;14.81;100.00
62632;BME280;48703;51.248;-0.546;2022-09-09T04:17:54;99714;;;14.80;100.00
62632;BME280;48703;51.248;-0.546;2022-09-09T04:20:56;99717;;;14.78;100.00
62632;BME280;48703;51.248;-0.546;2022-09-09T04:23:58;99720;;;14.78;100.00
62632;BME280;48703;51.248;-0.546;2022-09-09T04:27:00;99722;;;14.75;100.00
62632;BME280;48703;51.248;-0.546;2022-09-09T04:30:02;99726;;;14.75;100.00
62632;BME280;48703;51.248;-0.546;2022-09-09T04:33:04;99728;;;14.75;100.00
62632;BME280;48703;51.248;-0.546;2022-09-09T04:36:06;99730;;;14.75;100.00
62632;BME280;48703;51.248;-0.546;2022-09-09T04:39:08;99731;;;14.74;100.00
62632;BME280;48703;51.248;-0.546;2022-09-09T04:42:09;99737;;;14.75;100.00
62632;BME280;48703;51.248;-0.546;2022-09-09T04:45:11;99737;;;14.75;100.00
62632;BME280;48703;51.248;-0.546;2022-09-09T04:48:13;99740;;;14.74;100.00
62632;BME280;48703;51.248;-0.546;2022-09-09T04:51:15;99742;;;14.75;100.00
62632;BME280;48703;51.248;-0.546;2022-09-09T04:54:17;99743;;;14.74;100.00
62632;BME280;48703;51.248;-0.546;2022-09-09T04:57:19;99744;;;14.75;100.00
62632;BME280;48703;51.248;-0.546;2022-09-09T05:00:21;99747;;;14.76;100.00
62632;BME280;48703;51.248;-0.546;2022-09-09T05:03:23;99749;;;14.77;100.00
62632;BME280;48703;51.248;-0.546;2022-09-09T05:06:24;99750;;;14.79;100.00
62632;BME280;48703;51.248;-0.546;2022-09-09T05:09:26;99754;;;14.78;100.00
62632;BME280;48703;51.248;-0.546;2022-09-09T05:12:28;99760;;;14.78;100.00
62632;BME280;48703;51.248;-0.546;2022-09-09T05:15:30;99762;;;14.79;100.00
62632;BME280;48703;51.248;-0.546;2022-09-09T05:18:32;99763;;;14.79;100.00
62632;BME280;48703;51.248;-0.546;2022-09-09T05:21:34;99763;;;14.78;100.00
62632;BME280;48703;51.248;-0.546;2022-09-09T05:24:36;99765;;;14.77;100.00
62632;BME280;48703;51.248;-0.546;2022-09-09T05:27:38;99768;;;14.78;100.00
62632;BME280;48703;51.248;-0.546;2022-09-09T05:30:39;99769;;;14.77;100.00
62632;BME280;48703;51.248;-0.546;2022-09-09T05:33:42;99773;;;14.78;100.00
62632;BME280;48703;51.248;-0.546;2022-09-09T05:36:43;99775;;;14.78;100.00
62632;BME280;48703;51.248;-0.546;2022-09-09T05:39:45;99775;;;14.78;100.00
62632;BME280;48703;51.248;-0.546;2022-09-09T05:42:47;99776;;;14.75;100.00
62632;BME280;48703;51.248;-0.546;2022-09-09T05:45:58;99780;;;14.75;100.00
62632;BME280;48703;51.248;-0.546;2022-09-09T05:48:51;99780;;;14.74;100.00
62632;BME280;48703;51.248;-0.546;2022-09-09T05:51:53;99785;;;14.74;100.00
62632;BME280;48703;51.248;-0.546;2022-09-09T05:54:54;99788;;;14.73;100.00
62632;BME280;48703;51.248;-0.546;2022-09-09T05:57:56;99792;;;14.72;100.00
62632;BME280;48703;51.248;-0.546;2022-09-09T06:01:00;99796;;;14.72;100.00
62632;BME280;48703;51.248;-0.546;2022-09-09T06:04:00;99799;;;14.72;100.00
62632;BME280;48703;51.248;-0.546;2022-09-09T06:07:02;99803;;;14.72;100.00
62632;BME280;48703;51.248;-0.546;2022-09-09T06:10:04;99805;;;14.72;100.00
62632;BME280;48703;51.248;-0.546;2022-09-09T06:13:06;99804;;;14.72;100.00
62632;BME280;48703;51.248;-0.546;2022-09-09T06:16:08;99808;;;14.72;100.00
62632;BME280;48703;51.248;-0.546;2022-09-09T06:19:09;99810;;;14.72;100.00
62632;BME280;48703;51.248;-0.546;2022-09-09T06:22:11;99814;;;14.73;100.00
62632;BME280;48703;51.248;-0.546;2022-09-09T06:25:13;99821;;;14.75;100.00
62632;BME280;48703;51.248;-0.546;2022-09-09T06:28:15;99826;;;14.74;100.00
62632;BME280;48703;51.248;-0.546;2022-09-09T06:31:17;99826;;;14.76;100.00
62632;BME280;48703;51.248;-0.546;2022-09-09T06:34:19;99831;;;14.79;100.00
62632;BME280;48703;51.248;-0.546;2022-09-09T06:37:21;99829;;;14.80;100.00
62632;BME280;48703;51.248;-0.546;2022-09-09T06:40:22;99835;;;14.81;100.00
62632;BME280;48703;51.248;-0.546;2022-09-09T06:43:24;99840;;;14.82;100.00
62632;BME280;48703;51.248;-0.546;2022-09-09T06:46:27;99846;;;14.84;100.00
62632;BME280;48703;51.248;-0.546;2022-09-09T06:49:28;99848;;;14.85;100.00
62632;BME280;48703;51.248;-0.546;2022-09-09T06:52:30;99851;;;14.85;100.00
62632;BME280;48703;51.248;-0.546;2022-09-09T06:55:32;99855;;;14.86;100.00
62632;BME280;48703;51.248;-0.546;2022-09-09T06:58:34;99860;;;14.88;100.00
62632;BME280;48703;51.248;-0.546;2022-09-09T07:01:36;99863;;;14.91;100.00
62632;BME280;48703;51.248;-0.546;2022-09-09T07:04:37;99868;;;14.91;100.00
62632;BME280;48703;51.248;-0.546;2022-09-09T07:07:39;99871;;;14.91;100.00
62632;BME280;48703;51.248;-0.546;2022-09-09T07:10:41;99870;;;14.91;100.00
62632;BME280;48703;51.248;-0.546;2022-09-09T07:13:43;99870;;;14.90;100.00
62632;BME280;48703;51.248;-0.546;2022-09-09T07:16:45;99872;;;14.91;100.00
62632;BME280;48703;51.248;-0.546;2022-09-09T07:19:47;99874;;;14.91;100.00
62632;BME280;48703;51.248;-0.546;2022-09-09T07:22:49;99878;;;14.92;100.00
62632;BME280;48703;51.248;-0.546;2022-09-09T07:25:51;99882;;;14.94;100.00
62632;BME280;48703;51.248;-0.546;2022-09-09T07:28:52;99884;;;14.98;100.00
62632;BME280;48703;51.248;-0.546;2022-09-09T07:31:54;99886;;;15.00;100.00
62632;BME280;48703;51.248;-0.546;2022-09-09T07:34:56;99888;;;15.01;100.00
62632;BME280;48703;51.248;-0.546;2022-09-09T07:38:00;99891;;;15.03;100.00
62632;BME280;48703;51.248;-0.546;2022-09-09T07:41:04;99895;;;15.04;100.00
62632;BME280;48703;51.248;-0.546;2022-09-09T07:44:04;99899;;;15.05;100.00
62632;BME280;48703;51.248;-0.546;2022-09-09T07:47:04;99899;;;15.07;100.00
62632;BME280;48703;51.248;-0.546;2022-09-09T07:50:06;99904;;;15.14;100.00
62632;BME280;48703;51.248;-0.546;2022-09-09T07:53:07;99910;;;15.16;100.00
62632;BME280;48703;51.248;-0.546;2022-09-09T07:56:10;99916;;;15.22;100.00
62632;BME280;48703;51.248;-0.546;2022-09-09T07:59:11;99915;;;15.24;100.00
62632;BME280;48703;51.248;-0.546;2022-09-09T08:02:13;99920;;;15.26;100.00
62632;BME280;48703;51.248;-0.546;2022-09-09T08:05:15;99925;;;15.27;100.00
62632;BME280;48703;51.248;-0.546;2022-09-09T08:08:17;99929;;;15.28;100.00
62632;BME280;48703;51.248;-0.546;2022-09-09T08:11:19;99933;;;15.31;100.00
62632;BME280;48703;51.248;-0.546;2022-09-09T08:14:20;99938;;;15.32;100.00
62632;BME280;48703;51.248;-0.546;2022-09-09T08:17:22;99941;;;15.31;100.00
62632;BME280;48703;51.248;-0.546;2022-09-09T08:20:24;99944;;;15.33;100.00
62632;BME280;48703;51.248;-0.546;2022-09-09T08:23:26;99947;;;15.37;100.00
62632;BME280;48703;51.248;-0.546;2022-09-09T08:26:29;99951;;;15.37;100.00
62632;BME280;48703;51.248;-0.546;2022-09-09T08:29:30;99955;;;15.38;100.00
62632;BME280;48703;51.248;-0.546;2022-09-09T08:32:32;99959;;;15.40;100.00
62632;BME280;48703;51.248;-0.546;2022-09-09T08:35:34;99962;;;15.41;100.00
62632;BME280;48703;51.248;-0.546;2022-09-09T08:38:35;99969;;;15.43;100.00
62632;BME280;48703;51.248;-0.546;2022-09-09T08:41:41;99970;;;15.41;100.00
62632;BME280;48703;51.248;-0.546;2022-09-09T08:44:47;99975;;;15.40;100.00
62632;BME280;48703;51.248;-0.546;2022-09-09T08:47:43;99979;;;15.43;100.00
62632;BME280;48703;51.248;-0.546;2022-09-09T08:50:43;99982;;;15.43;100.00
62632;BME280;48703;51.248;-0.546;2022-09-09T08:53:46;99985;;;15.42;100.00
62632;BME280;48703;51.248;-0.546;2022-09-09T08:56:47;99987;;;15.43;100.00
62632;BME280;48703;51.248;-0.546;2022-09-09T08:59:49;99988;;;15.44;100.00
62632;BME280;48703;51.248;-0.546;2022-09-09T09:02:53;99997;;;15.45;100.00
62632;BME280;48703;51.248;-0.546;2022-09-09T09:05:55;100001;;;15.46;100.00
62632;BME280;48703;51.248;-0.546;2022-09-09T09:08:56;100008;;;15.49;100.00
62632;BME280;48703;51.248;-0.546;2022-09-09T09:11:57;100006;;;15.52;100.00
62632;BME280;48703;51.248;-0.546;2022-09-09T09:14:58;100009;;;15.57;100.00
62632;BME280;48703;51.248;-0.546;2022-09-09T09:18:00;100010;;;15.64;100.00
62632;BME280;48703;51.248;-0.546;2022-09-09T09:21:02;100019;;;15.68;100.00
62632;BME280;48703;51.248;-0.546;2022-09-09T09:24:04;100024;;;15.70;100.00
62632;BME280;48703;51.248;-0.546;2022-09-09T09:27:09;100028;;;15.74;100.00
62632;BME280;48703;51.248;-0.546;2022-09-09T09:30:13;100032;;;15.80;100.00
62632;BME280;48703;51.248;-0.546;2022-09-09T09:33:15;100035;;;15.86;100.00
62632;BME280;48703;51.248;-0.546;2022-09-09T09:36:11;100038;;;15.95;100.00
62632;BME280;48703;51.248;-0.546;2022-09-09T09:39:22;100040;;;16.01;100.00
62632;BME280;48703;51.248;-0.546;2022-09-09T09:42:16;100045;;;16.07;100.00
62632;BME280;48703;51.248;-0.546;2022-09-09T09:45:18;100048;;;16.08;100.00
62632;BME280;48703;51.248;-0.546;2022-09-09T09:48:18;100052;;;16.06;100.00
62632;BME280;48703;51.248;-0.546;2022-09-09T09:51:20;100058;;;16.08;100.00
62632;BME280;48703;51.248;-0.546;2022-09-09T09:54:23;100060;;;16.08;100.00
62632;BME280;48703;51.248;-0.546;2022-09-09T09:57:26;100064;;;16.11;100.00
62632;BME280;48703;51.248;-0.546;2022-09-09T10:00:26;100065;;;16.13;100.00
62632;BME280;48703;51.248;-0.546;2022-09-09T10:03:29;100071;;;16.13;100.00
62632;BME280;48703;51.248;-0.546;2022-09-09T10:06:30;100073;;;16.11;100.00
62632;BME280;48703;51.248;-0.546;2022-09-09T10:09:32;100074;;;16.14;100.00
62632;BME280;48703;51.248;-0.546;2022-09-09T10:12:37;100075;;;16.19;100.00
62632;BME280;48703;51.248;-0.546;2022-09-09T10:15:38;100078;;;16.23;100.00
62632;BME280;48703;51.248;-0.546;2022-09-09T10:18:41;100082;;;16.22;100.00
62632;BME280;48703;51.248;-0.546;2022-09-09T10:21:46;100084;;;16.25;100.00
62632;BME280;48703;51.248;-0.546;2022-09-09T10:24:48;100087;;;16.29;100.00
62632;BME280;48703;51.248;-0.546;2022-09-09T10:27:45;100086;;;16.35;100.00
62632;BME280;48703;51.248;-0.546;2022-09-09T10:30:46;100088;;;16.44;100.00
62632;BME280;48703;51.248;-0.546;2022-09-09T10:33:49;100089;;;16.52;100.00
62632;BME280;48703;51.248;-0.546;2022-09-09T10:36:48;100091;;;16.57;100.00
62632;BME280;48703;51.248;-0.546;2022-09-09T10:39:50;100091;;;16.60;100.00
62632;BME280;48703;51.248;-0.546;2022-09-09T10:42:52;100090;;;16.59;100.00
62632;BME280;48703;51.248;-0.546;2022-09-09T10:45:56;100093;;;16.59;100.00
62632;BME280;48703;51.248;-0.546;2022-09-09T10:49:00;100092;;;16.67;100.00
62632;BME280;48703;51.248;-0.546;2022-09-09T10:51:59;100093;;;16.69;100.00
62632;BME280;48703;51.248;-0.546;2022-09-09T10:55:00;100094;;;16.76;100.00
62632;BME280;48703;51.248;-0.546;2022-09-09T10:58:02;100096;;;16.82;100.00
62632;BME280;48703;51.248;-0.546;2022-09-09T11:01:06;100095;;;16.90;100.00
62632;BME280;48703;51.248;-0.546;2022-09-09T11:04:06;100097;;;16.91;100.00
62632;BME280;48703;51.248;-0.546;2022-09-09T11:07:08;100098;;;16.92;100.00
62632;BME280;48703;51.248;-0.546;2022-09-09T11:10:16;100100;;;16.91;100.00
62632;BME280;48703;51.248;-0.546;2022-09-09T11:13:13;100101;;;16.94;100.00
62632;BME280;48703;51.248;-0.546;2022-09-09T11:16:16;100105;;;16.96;100.00
62632;BME280;48703;51.248;-0.546;2022-09-09T11:19:16;100106;;;16.98;100.00
62632;BME280;48703;51.248;-0.546;2022-09-09T11:22:19;100107;;;16.99;100.00
62632;BME280;48703;51.248;-0.546;2022-09-09T11:25:19;100110;;;17.02;100.00
62632;BME280;48703;51.248;-0.546;2022-09-09T11:28:27;100110;;;17.05;100.00
62632;BME280;48703;51.248;-0.546;2022-09-09T11:31:29;100112;;;17.12;100.00
62632;BME280;48703;51.248;-0.546;2022-09-09T11:34:30;100112;;;17.17;100.00
62632;BME280;48703;51.248;-0.546;2022-09-09T11:37:32;100116;;;17.23;100.00
62632;BME280;48703;51.248;-0.546;2022-09-09T11:40:28;100118;;;17.32;100.00
62632;BME280;48703;51.248;-0.546;2022-09-09T11:43:30;100115;;;17.37;100.00
62632;BME280;48703;51.248;-0.546;2022-09-09T11:46:35;100114;;;17.47;100.00
62632;BME280;48703;51.248;-0.546;2022-09-09T11:49:40;100115;;;17.57;100.00
62632;BME280;48703;51.248;-0.546;2022-09-09T11:52:37;100116;;;17.68;100.00
62632;BME280;48703;51.248;-0.546;2022-09-09T11:55:37;100121;;;17.70;100.00
62632;BME280;48703;51.248;-0.546;2022-09-09T11:58:40;100125;;;17.68;100.00
62632;BME280;48703;51.248;-0.546;2022-09-09T12:01:41;100125;;;17.63;100.00
62632;BME280;48703;51.248;-0.546;2022-09-09T12:04:43;100130;;;17.62;100.00
62632;BME280;48703;51.248;-0.546;2022-09-09T12:07:47;100133;;;17.61;100.00
62632;BME280;48703;51.248;-0.546;2022-09-09T12:10:53;100134;;;17.58;100.00
62632;BME280;48703;51.248;-0.546;2022-09-09T12:13:52;100134;;;17.48;100.00
62632;BME280;48703;51.248;-0.546;2022-09-09T12:16:50;100135;;;17.36;100.00
62632;BME280;48703;51.248;-0.546;2022-09-09T12:19:59;100136;;;17.26;100.00
62632;BME280;48703;51.248;-0.546;2022-09-09T12:23:17;100133;;;17.21;100.00
62632;BME280;48703;51.248;-0.546;2022-09-09T12:26:01;100134;;;17.20;100.00
62632;BME280;48703;51.248;-0.546;2022-09-09T12:29:00;100133;;;17.20;100.00
62632;BME280;48703;51.248;-0.546;2022-09-09T12:32:00;100135;;;17.24;100.00
62632;BME280;48703;51.248;-0.546;2022-09-09T12:35:02;100132;;;17.30;100.00
62632;BME280;48703;51.248;-0.546;2022-09-09T12:38:03;100134;;;17.34;100.00
62632;BME280;48703;51.248;-0.546;2022-09-09T12:41:05;100138;;;17.37;100.00
62632;BME280;48703;51.248;-0.546;2022-09-09T12:44:08;100137;;;17.41;100.00
62632;BME280;48703;51.248;-0.546;2022-09-09T12:47:09;100139;;;17.41;100.00
62632;BME280;48703;51.248;-0.546;2022-09-09T12:50:15;100140;;;17.42;100.00
62632;BME280;48703;51.248;-0.546;2022-09-09T12:53:15;100145;;;17.46;100.00
62632;BME280;48703;51.248;-0.546;2022-09-09T12:56:18;100146;;;17.47;100.00
62632;BME280;48703;51.248;-0.546;2022-09-09T12:59:21;100146;;;17.51;100.00
62632;BME280;48703;51.248;-0.546;2022-09-09T13:02:20;100146;;;17.50;100.00
62632;BME280;48703;51.248;-0.546;2022-09-09T13:05:21;100146;;;17.53;100.00
62632;BME280;48703;51.248;-0.546;2022-09-09T13:08:22;100152;;;17.55;100.00
62632;BME280;48703;51.248;-0.546;2022-09-09T13:11:24;100153;;;17.59;100.00
62632;BME280;48703;51.248;-0.546;2022-09-09T13:14:27;100152;;;17.66;100.00
62632;BME280;48703;51.248;-0.546;2022-09-09T13:17:28;100158;;;17.72;100.00
62632;BME280;48703;51.248;-0.546;2022-09-09T13:20:29;100161;;;17.71;100.00
62632;BME280;48703;51.248;-0.546;2022-09-09T13:23:32;100164;;;17.66;100.00
62632;BME280;48703;51.248;-0.546;2022-09-09T13:26:34;100168;;;17.66;100.00
62632;BME280;48703;51.248;-0.546;2022-09-09T13:29:35;100170;;;17.64;100.00
62632;BME280;48703;51.248;-0.546;2022-09-09T13:32:37;100167;;;17.65;100.00
62632;BME280;48703;51.248;-0.546;2022-09-09T13:35:45;100168;;;17.68;100.00
62632;BME280;48703;51.248;-0.546;2022-09-09T13:38:52;100171;;;17.79;100.00
62632;BME280;48703;51.248;-0.546;2022-09-09T13:41:43;100170;;;17.80;100.00
62632;BME280;48703;51.248;-0.546;2022-09-09T13:44:45;100175;;;17.74;100.00
62632;BME280;48703;51.248;-0.546;2022-09-09T13:47:46;100176;;;17.76;100.00
62632;BME280;48703;51.248;-0.546;2022-09-09T13:50:53;100178;;;17.76;100.00
62632;BME280;48703;51.248;-0.546;2022-09-09T13:53:50;100177;;;17.73;100.00
62632;BME280;48703;51.248;-0.546;2022-09-09T13:56:52;100179;;;17.71;100.00
62632;BME280;48703;51.248;-0.546;2022-09-09T13:59:54;100179;;;17.72;100.00
62632;BME280;48703;51.248;-0.546;2022-09-09T14:02:56;100181;;;17.71;100.00
62632;BME280;48703;51.248;-0.546;2022-09-09T14:05:57;100181;;;17.75;100.00
62632;BME280;48703;51.248;-0.546;2022-09-09T14:08:59;100178;;;17.81;100.00
62632;BME280;48703;51.248;-0.546;2022-09-09T14:12:01;100178;;;17.86;100.00
62632;BME280;48703;51.248;-0.546;2022-09-09T14:15:03;100175;;;17.91;100.00
62632;BME280;48703;51.248;-0.546;2022-09-09T14:18:05;100180;;;17.93;100.00
62632;BME280;48703;51.248;-0.546;2022-09-09T14:21:07;100179;;;17.95;100.00
62632;BME280;48703;51.248;-0.546;2022-09-09T14:24:09;100180;;;17.97;100.00
62632;BME280;48703;51.248;-0.546;2022-09-09T14:27:11;100182;;;17.97;100.00
62632;BME280;48703;51.248;-0.546;2022-09-09T14:30:12;100187;;;17.93;100.00
62632;BME280;48703;51.248;-0.546;2022-09-09T14:33:15;100189;;;17.91;100.00
62632;BME280;48703;51.248;-0.546;2022-09-09T14:36:16;100193;;;17.88;100.00
62632;BME280;48703;51.248;-0.546;2022-09-09T14:39:18;100195;;;17.86;100.00
62632;BME280;48703;51.248;-0.546;2022-09-09T14:42:20;100190;;;17.87;100.00
62632;BME280;48703;51.248;-0.546;2022-09-09T14:45:22;100191;;;17.91;100.00
62632;BME280;48703;51.248;-0.546;2022-09-09T14:48:24;100190;;;17.97;100.00
62632;BME280;48703;51.248;-0.546;2022-09-09T14:51:26;100188;;;18.07;100.00
62632;BME280;48703;51.248;-0.546;2022-09-09T14:54:27;100185;;;18.15;100.00
62632;BME280;48703;51.248;-0.546;2022-09-09T14:57:29;100186;;;18.18;100.00
62632;BME280;48703;51.248;-0.546;2022-09-09T15:00:31;100186;;;18.20;100.00
62632;BME280;48703;51.248;-0.546;2022-09-09T15:03:33;100190;;;18.23;100.00
62632;BME280;48703;51.248;-0.546;2022-09-09T15:06:35;100191;;;18.24;100.00
62632;BME280;48703;51.248;-0.546;2022-09-09T15:09:37;100193;;;18.23;100.00
62632;BME280;48703;51.248;-0.546;2022-09-09T15:12:39;100191;;;18.25;100.00
62632;BME280;48703;51.248;-0.546;2022-09-09T15:15:40;100190;;;18.24;100.00
62632;BME280;48703;51.248;-0.546;2022-09-09T15:18:43;100184;;;18.23;100.00
62632;BME280;48703;51.248;-0.546;2022-09-09T15:21:44;100184;;;18.24;100.00
62632;BME280;48703;51.248;-0.546;2022-09-09T15:24:46;100184;;;18.23;100.00
62632;BME280;48703;51.248;-0.546;2022-09-09T15:27:48;100185;;;18.24;100.00
62632;BME280;48703;51.248;-0.546;2022-09-09T15:30:50;100186;;;18.26;100.00
62632;BME280;48703;51.248;-0.546;2022-09-09T15:33:52;100186;;;18.29;100.00
62632;BME280;48703;51.248;-0.546;2022-09-09T15:36:54;100182;;;18.33;100.00
62632;BME280;48703;51.248;-0.546;2022-09-09T15:39:55;100188;;;18.35;100.00
62632;BME280;48703;51.248;-0.546;2022-09-09T15:42:57;100187;;;18.36;100.00
62632;BME280;48703;51.248;-0.546;2022-09-09T15:46:02;100190;;;18.35;100.00
62632;BME280;48703;51.248;-0.546;2022-09-09T15:49:03;100191;;;18.34;100.00
62632;BME280;48703;51.248;-0.546;2022-09-09T15:52:03;100198;;;18.32;100.00
62632;BME280;48703;51.248;-0.546;2022-09-09T15:55:05;100200;;;18.31;100.00
62632;BME280;48703;51.248;-0.546;2022-09-09T15:58:07;100200;;;18.33;100.00
62632;BME280;48703;51.248;-0.546;2022-09-09T16:01:09;100203;;;18.40;100.00
62632;BME280;48703;51.248;-0.546;2022-09-09T16:04:10;100205;;;18.54;100.00
62632;BME280;48703;51.248;-0.546;2022-09-09T16:07:12;100207;;;18.66;100.00